Time;durP1;ratioP1;P1;durP2;ratioP2;P2;SDS_P1;SDS_P2;PMS_P1;PMS_P2;Temp;Humidity;BMP_temperature;BMP_pressure;BME280_temperature;BME280_humidity;BME280_pressure;Samples;Min_cycle;Max_cycle;Signal;HPM_P1;HPM_P2
2023/10/28 00:00:29;;;;;;;21.88;7.63;;;;;;;17.53;100.00;103027.19;5016229;28;20048;-69
2023/10/28 00:02:56;;;;;;;20.48;6.80;;;;;;;17.32;100.00;102997.31;5009001;28;20033;-69
2023/10/28 00:05:23;;;;;;;23.17;7.35;;;;;;;17.73;100.00;103063.06;5018852;28;20038;-69
2023/10/28 00:07:49;;;;;;;19.73;7.15;;;;;;;17.61;100.00;103047.75;5007229;28;20034;-68
2023/10/28 00:10:14;;;;;;;15.85;7.35;;;;;;;17.59;100.00;103058.03;5015125;28;20081;-69
2023/10/28 00:12:40;;;;;;;19.45;7.22;;;;;;;17.18;100.00;103006.84;5016293;28;20037;-68
2023/10/28 00:15:06;;;;;;;24.00;7.00;;;;;;;17.41;100.00;103034.97;5016191;28;21841;-69
2023/10/28 00:17:32;;;;;;;22.60;7.85;;;;;;;17.03;100.00;103017.22;5015265;28;20095;-68
2023/10/28 00:19:57;;;;;;;17.58;7.35;;;;;;;16.81;100.00;103009.63;5021373;28;20474;-69
2023/10/28 00:22:23;;;;;;;19.30;7.35;;;;;;;16.87;100.00;103018.16;5019608;28;20507;-69
2023/10/28 00:24:49;;;;;;;20.20;8.60;;;;;;;16.93;100.00;103033.56;5020505;28;20041;-69
2023/10/28 00:27:14;;;;;;;25.67;7.82;;;;;;;17.28;100.00;103077.94;5009093;28;20041;-69
2023/10/28 00:29:40;;;;;;;21.15;7.60;;;;;;;17.16;100.00;103061.72;5006760;28;20054;-69
2023/10/28 00:32:06;;;;;;;20.60;7.88;;;;;;;17.11;100.00;103079.72;5008737;28;20038;-69
2023/10/28 00:34:32;;;;;;;20.67;8.38;;;;;;;16.89;100.00;103070.44;5019273;28;20554;-70
2023/10/28 00:36:58;;;;;;;23.27;8.82;;;;;;;16.78;100.00;103064.44;5017492;28;20032;-68
2023/10/28 00:39:24;;;;;;;22.92;8.52;;;;;;;17.12;100.00;103089.16;5016822;28;20029;-69
2023/10/28 00:41:50;;;;;;;23.23;9.10;;;;;;;16.96;100.00;103028.38;5016583;28;20033;-69
2023/10/28 00:44:15;;;;;;;27.05;8.95;;;;;;;16.91;100.00;103066.13;5018680;28;20033;-69
2023/10/28 00:46:42;;;;;;;25.25;9.45;;;;;;;16.91;100.00;103055.84;5015671;28;20538;-69
2023/10/28 00:49:08;;;;;;;18.15;8.23;;;;;;;16.79;100.00;103043.06;5018644;28;20083;-69
2023/10/28 00:51:35;;;;;;;20.63;8.80;;;;;;;17.07;100.00;103098.59;5006490;28;20084;-69
2023/10/28 00:54:01;;;;;;;17.98;8.43;;;;;;;16.54;100.00;103002.03;5007481;28;20112;-69
2023/10/28 00:56:29;;;;;;;18.83;8.32;;;;;;;16.94;100.00;103076.38;5013001;28;20080;-70
2023/10/28 00:58:55;;;;;;;15.60;7.68;;;;;;;17.06;100.00;103101.19;5016883;28;20053;-69
2023/10/28 01:01:21;;;;;;;19.95;8.27;;;;;;;17.01;100.00;103095.22;5021600;28;20075;-69
2023/10/28 01:03:47;;;;;;;16.73;7.47;;;;;;;16.92;100.00;103066.97;5018440;28;20030;-69
2023/10/28 01:06:13;;;;;;;17.15;7.82;;;;;;;16.65;100.00;102984.84;5014436;28;20496;-69
2023/10/28 01:08:39;;;;;;;23.75;8.07;;;;;;;16.57;100.00;102972.03;5021739;28;20508;-69
2023/10/28 01:11:05;;;;;;;22.23;7.28;;;;;;;16.68;100.00;102972.00;5015431;28;20037;-69
2023/10/28 01:13:31;;;;;;;19.42;7.85;;;;;;;16.81;100.00;103009.63;5014348;28;20045;-69
2023/10/28 01:15:59;;;;;;;21.05;7.70;;;;;;;16.82;100.00;102991.63;5016141;28;20061;-69
2023/10/28 01:18:24;;;;;;;18.75;8.27;;;;;;;16.54;100.00;102879.56;5007218;28;20495;-69
2023/10/28 01:20:50;;;;;;;21.67;8.05;;;;;;;16.76;100.00;102459.72;5019079;28;20033;-69
2023/10/28 01:23:15;;;;;;;19.88;7.82;;;;;;;16.74;100.00;102389.50;5015695;28;20031;-69
2023/10/28 01:25:41;;;;;;;20.00;7.30;;;;;;;17.01;100.00;102357.41;5006992;28;20026;-69
2023/10/28 01:28:08;;;;;;;22.67;8.57;;;;;;;16.46;100.00;102237.50;5006363;28;20030;-68
2023/10/28 01:30:33;;;;;;;19.80;8.48;;;;;;;16.83;100.00;102278.88;5014461;28;20046;-70
2023/10/28 01:32:59;;;;;;;18.23;7.90;;;;;;;16.69;100.00;102255.13;5006159;28;20038;-69
2023/10/28 01:35:24;;;;;;;19.27;8.18;;;;;;;16.77;100.00;102227.59;5013538;28;20026;-69
2023/10/28 01:37:50;;;;;;;20.65;8.23;;;;;;;16.67;100.00;102196.94;5015551;28;20499;-69
2023/10/28 01:40:17;;;;;;;20.30;7.90;;;;;;;16.87;100.00;102200.00;5020473;28;20054;-69
2023/10/28 01:42:44;;;;;;;23.25;8.13;;;;;;;16.44;100.00;102103.13;5008257;28;20032;-69
2023/10/28 01:45:10;;;;;;;19.88;7.43;;;;;;;16.85;100.00;102152.94;5016974;28;20080;-69
2023/10/28 01:47:41;;;;;;;18.10;7.97;;;;;;;16.84;100.00;102121.25;5004909;28;20038;-69
2023/10/28 01:50:07;;;;;;;19.52;7.75;;;;;;;16.87;100.00;102061.25;5012030;28;20121;-69
2023/10/28 01:52:33;;;;;;;21.05;8.23;;;;;;;16.71;100.00;102050.44;5008272;28;20041;-69
2023/10/28 01:54:58;;;;;;;18.15;7.47;;;;;;;16.54;100.00;101975.41;5016342;28;20040;-69
2023/10/28 01:57:24;;;;;;;22.88;7.97;;;;;;;16.91;100.00;101990.94;5013981;28;20034;-69
2023/10/28 01:59:51;;;;;;;24.15;8.05;;;;;;;16.64;100.00;101912.69;5007482;28;20404;-69
2023/10/28 02:02:16;;;;;;;23.35;8.43;;;;;;;16.57;100.00;101921.44;5013329;28;20029;-69
2023/10/28 02:04:42;;;;;;;20.80;8.48;;;;;;;16.75;100.00;101891.94;5010645;28;20029;-69
2023/10/28 02:07:07;;;;;;;22.13;8.52;;;;;;;16.21;100.00;101796.38;5021839;28;20041;-69
2023/10/28 02:09:33;;;;;;;18.00;8.57;;;;;;;16.36;100.00;101783.22;5008751;28;20081;-69
2023/10/28 02:12:01;;;;;;;18.00;8.68;;;;;;;16.74;100.00;101826.03;5019870;28;20032;-69
2023/10/28 02:14:27;;;;;;;20.35;8.48;;;;;;;16.54;100.00;101764.00;5020576;28;20052;-69
2023/10/28 02:16:54;;;;;;;17.27;7.93;;;;;;;16.13;100.00;101687.91;5028639;28;20130;-69
2023/10/28 02:19:20;;;;;;;18.77;7.68;;;;;;;16.62;100.00;101755.22;5017187;28;20508;-70
2023/10/28 02:21:45;;;;;;;25.33;7.70;;;;;;;16.62;100.00;101749.25;5009965;28;20030;-69
2023/10/28 02:24:12;;;;;;;24.20;7.88;;;;;;;16.74;100.00;101742.06;5018539;28;20037;-69
2023/10/28 02:26:37;;;;;;;16.70;7.15;;;;;;;16.82;100.00;101747.88;5014737;28;20026;-70
2023/10/28 02:29:03;;;;;;;24.33;7.53;;;;;;;16.85;100.00;101770.94;5016898;28;20041;-69
2023/10/28 02:31:29;;;;;;;20.20;7.22;;;;;;;16.39;100.00;101716.38;5014884;28;20079;-70
2023/10/28 02:33:54;;;;;;;21.38;7.10;;;;;;;16.50;100.00;101746.97;5017823;28;20025;-69
2023/10/28 02:36:19;;;;;;;19.73;7.57;;;;;;;16.44;100.00;101712.81;5021009;28;20044;-69
2023/10/28 02:38:45;;;;;;;18.48;7.65;;;;;;;16.61;100.00;101752.69;5018295;28;20526;-69
2023/10/28 02:41:11;;;;;;;21.48;7.80;;;;;;;16.70;100.00;101762.75;5020082;28;20040;-69
2023/10/28 02:43:36;;;;;;;23.20;7.78;;;;;;;16.60;100.00;101759.53;5010929;28;20034;-69
2023/10/28 02:46:03;;;;;;;16.23;7.85;;;;;;;16.27;100.00;101703.84;5008857;28;20068;-69
2023/10/28 02:48:29;;;;;;;18.52;8.00;;;;;;;16.28;100.00;101711.50;5005756;28;20413;-69
2023/10/28 02:50:54;;;;;;;15.63;7.28;;;;;;;16.18;100.00;101684.34;5009465;28;20037;-70
2023/10/28 02:53:20;;;;;;;21.30;7.80;;;;;;;16.21;100.00;101665.47;5020057;28;20032;-69
2023/10/28 02:55:45;;;;;;;20.75;7.15;;;;;;;16.39;100.00;101673.59;5020239;28;20500;-69
2023/10/28 02:58:10;;;;;;;22.70;7.30;;;;;;;16.60;100.00;101697.09;5021463;28;20116;-70
2023/10/28 03:00:36;;;;;;;18.65;7.32;;;;;;;16.12;100.00;101601.56;5010405;28;20409;-69
2023/10/28 03:03:04;;;;;;;19.65;7.70;;;;;;;16.21;100.00;101612.44;5012613;28;20049;-69
2023/10/28 03:05:30;;;;;;;18.55;7.15;;;;;;;16.72;100.00;101701.91;5009788;28;20574;-69
2023/10/28 03:07:55;;;;;;;17.83;7.47;;;;;;;16.84;100.00;101701.56;5014358;28;20058;-69
2023/10/28 03:10:21;;;;;;;18.08;8.20;;;;;;;16.59;100.00;101691.09;5019583;28;20116;-70
2023/10/28 03:12:47;;;;;;;18.60;7.95;;;;;;;16.60;100.00;101671.41;5018788;28;20049;-69
2023/10/28 03:15:12;;;;;;;18.98;7.75;;;;;;;16.57;100.00;101661.19;5020356;28;20037;-69
2023/10/28 03:17:38;;;;;;;19.95;7.55;;;;;;;16.66;100.00;101666.94;5020418;28;20034;-69
2023/10/28 03:20:05;;;;;;;18.45;8.10;;;;;;;16.28;100.00;101623.41;5022043;28;20037;-69
2023/10/28 03:22:31;;;;;;;18.80;7.95;;;;;;;16.47;100.00;101653.69;5016183;28;20030;-68
2023/10/28 03:24:56;;;;;;;24.67;10.80;;;;;;;16.45;100.00;101652.03;5019280;28;20095;-69
2023/10/28 03:27:22;;;;;;;33.28;11.73;;;;;;;16.45;100.00;101616.94;5020278;28;20042;-69
2023/10/28 03:29:49;;;;;;;29.70;10.55;;;;;;;16.13;100.00;101557.88;5007076;28;20053;-69
2023/10/28 03:32:15;;;;;;;25.63;9.52;;;;;;;16.29;100.00;101584.00;5014111;28;20129;-68
2023/10/28 03:34:40;;;;;;;25.58;9.20;;;;;;;16.15;100.00;101593.75;5019797;28;20108;-69
2023/10/28 03:37:06;;;;;;;22.73;9.43;;;;;;;15.88;100.00;101510.63;5015347;28;20088;-69
2023/10/28 03:39:31;;;;;;;19.92;9.00;;;;;;;16.08;100.00;101505.84;5019747;28;20423;-69
2023/10/28 03:41:57;;;;;;;19.55;9.10;;;;;;;15.96;100.00;101497.63;5015392;28;20485;-69
2023/10/28 03:44:22;;;;;;;21.33;8.98;;;;;;;16.20;100.00;101553.44;5017863;28;20025;-69
2023/10/28 03:46:48;;;;;;;29.15;9.35;;;;;;;16.23;100.00;101455.81;5014284;28;20057;-77
2023/10/28 03:49:14;;;;;;;20.90;9.15;;;;;;;17.16;100.00;101516.50;5009474;28;20699;-70
2023/10/28 03:51:40;;;;;;;23.30;8.75;;;;;;;16.39;100.00;101509.28;5008118;28;20048;-71
2023/10/28 03:54:06;;;;;;;20.40;8.95;;;;;;;15.71;100.00;101419.63;5016130;28;20515;-70
2023/10/28 03:56:31;;;;;;;17.23;9.52;;;;;;;16.05;100.00;101472.56;5016730;28;20046;-70
2023/10/28 03:58:57;;;;;;;21.50;9.82;;;;;;;15.92;100.00;101460.09;5014660;28;20029;-71
2023/10/28 04:01:23;;;;;;;18.02;9.05;;;;;;;15.47;100.00;101383.44;5006728;28;20049;-71
2023/10/28 04:03:49;;;;;;;25.55;10.60;;;;;;;15.68;100.00;101410.28;5017374;28;20087;-70
2023/10/28 04:06:14;;;;;;;22.88;9.93;;;;;;;15.48;100.00;101397.13;5018061;28;20080;-70
2023/10/28 04:08:40;;;;;;;21.75;9.32;;;;;;;15.66;100.00;101413.75;5016113;28;20113;-70
2023/10/28 04:11:05;;;;;;;20.70;9.48;;;;;;;15.96;100.00;101471.97;5015299;28;20440;-69
2023/10/28 04:13:32;;;;;;;34.65;16.55;;;;;;;15.83;100.00;101473.97;5005637;28;20054;-70
2023/10/28 04:15:57;;;;;;;31.80;14.13;;;;;;;15.46;100.00;101435.63;5007612;28;20038;-70
2023/10/28 04:18:22;;;;;;;26.08;11.05;;;;;;;15.51;100.00;101432.91;5007335;28;20111;-70
2023/10/28 04:20:50;;;;;;;19.42;8.93;;;;;;;15.66;100.00;101458.19;5005926;28;20033;-70
2023/10/28 04:23:16;;;;;;;20.55;9.50;;;;;;;15.95;100.00;101501.03;5007758;28;20026;-70
2023/10/28 04:25:42;;;;;;;22.25;9.68;;;;;;;15.46;100.00;101430.47;5006668;28;20091;-70
2023/10/28 04:28:07;;;;;;;17.42;9.25;;;;;;;15.40;100.00;101435.72;5006971;28;20025;-70
2023/10/28 04:30:33;;;;;;;20.80;9.95;;;;;;;15.42;100.00;101438.28;5005842;28;20044;-70
2023/10/28 04:32:58;;;;;;;21.17;8.82;;;;;;;15.68;100.00;101501.72;5006686;28;20069;-70
2023/10/28 04:35:24;;;;;;;20.38;8.25;;;;;;;15.66;100.00;101482.97;5005398;28;20030;-69
2023/10/28 04:37:49;;;;;;;18.23;9.05;;;;;;;15.55;100.00;101435.38;5006869;28;20412;-70
2023/10/28 04:40:15;;;;;;;19.60;8.98;;;;;;;15.70;100.00;101451.25;5006199;28;20144;-70
2023/10/28 04:42:40;;;;;;;21.20;9.95;;;;;;;15.66;100.00;101422.28;5006565;28;20475;-69
2023/10/28 04:45:06;;;;;;;22.88;11.18;;;;;;;15.68;100.00;101417.13;5007122;28;20030;-70
2023/10/28 04:47:32;;;;;;;20.63;9.98;;;;;;;15.62;100.00;101428.38;5005763;28;20034;-70
2023/10/28 04:49:58;;;;;;;21.95;9.48;;;;;;;15.76;100.00;101436.56;5006655;28;20038;-69
2023/10/28 04:52:23;;;;;;;18.42;10.13;;;;;;;15.57;100.00;101407.97;5005353;28;20390;-69
2023/10/28 04:54:49;;;;;;;40.72;13.30;;;;;;;15.95;100.00;101408.69;5006335;28;20429;-69
2023/10/28 04:57:15;;;;;;;22.10;9.85;;;;;;;15.89;100.00;101401.16;5007334;28;20477;-71
2023/10/28 04:59:41;;;;;;;24.85;9.45;;;;;;;15.63;100.00;101367.69;5005637;28;20026;-69
2023/10/28 05:02:06;;;;;;;27.88;10.02;;;;;;;15.49;100.00;101337.25;5007001;28;20503;-69
2023/10/28 05:04:32;;;;;;;26.20;10.65;;;;;;;15.64;100.00;101336.88;5005216;28;20037;-69
2023/10/28 05:06:57;;;;;;;26.15;10.48;;;;;;;15.97;100.00;101387.25;5007021;28;20571;-70
2023/10/28 05:09:23;;;;;;;28.40;11.13;;;;;;;15.82;100.00;101387.69;5005581;28;20484;-70
2023/10/28 05:11:53;;;;;;;26.10;12.15;;;;;;;15.58;100.00;101337.88;5006307;28;20038;-69
2023/10/28 05:14:20;;;;;;;20.52;11.52;;;;;;;15.74;100.00;101399.00;5004662;28;20065;-70
2023/10/28 05:16:46;;;;;;;28.05;12.13;;;;;;;15.62;100.00;101330.94;5005315;28;20022;-69
2023/10/28 05:19:11;;;;;;;25.25;10.98;;;;;;;15.76;100.00;101322.88;5005089;28;20037;-70
2023/10/28 05:21:37;;;;;;;21.63;11.13;;;;;;;16.38;100.00;101332.19;5007127;28;20160;-70
2023/10/28 05:24:03;;;;;;;25.95;11.07;;;;;;;18.19;100.00;101336.31;5006672;28;20031;-69
2023/10/28 05:26:29;;;;;;;24.63;9.45;;;;;;;18.38;100.00;101409.41;5006645;28;20045;-70
2023/10/28 05:28:54;;;;;;;22.02;8.90;;;;;;;19.55;100.00;101637.94;5006713;28;20033;-70
2023/10/28 05:31:21;;;;;;;21.98;9.73;;;;;;;20.63;100.00;102004.91;5006722;28;20398;-70
2023/10/28 05:33:47;;;;;;;27.23;11.07;;;;;;;22.02;100.00;102790.63;5002070;28;20483;-69
2023/10/28 05:36:12;;;;;;;25.08;9.82;;;;;;;23.05;100.00;103715.06;5006508;28;20023;-70
2023/10/28 05:38:38;;;;;;;19.63;8.55;;;;;;;23.43;100.00;104299.00;5007750;28;20092;-69
2023/10/28 05:41:03;;;;;;;23.15;8.43;;;;;;;23.52;100.00;103905.53;5010188;28;20029;-70
2023/10/28 05:43:28;;;;;;;23.33;8.60;;;;;;;24.12;100.00;103185.56;5010791;28;20451;-70
2023/10/28 05:45:54;;;;;;;19.52;8.25;;;;;;;24.09;100.00;102243.41;5010633;28;20116;-70
2023/10/28 05:48:19;;;;;;;22.17;8.25;;;;;;;23.44;100.00;101879.38;5008023;28;20034;-70
2023/10/28 05:50:45;;;;;;;18.67;8.02;;;;;;;24.46;100.00;101651.94;5010349;28;20034;-70
2023/10/28 05:53:10;;;;;;;19.40;8.40;;;;;;;25.21;100.00;101399.09;5010183;28;20115;-70
2023/10/28 05:55:35;;;;;;;18.38;9.15;;;;;;;24.67;100.00;101186.69;5010265;28;20040;-70
2023/10/28 05:58:01;;;;;;;24.65;10.02;;;;;;;23.46;100.00;101028.34;5010269;28;20121;-71
2023/10/28 06:00:28;;;;;;;22.25;9.88;;;;;;;25.03;100.00;101095.72;5009550;28;20034;-70
2023/10/28 06:02:54;;;;;;;28.13;9.68;;;;;;;26.17;100.00;100968.28;5008473;28;20443;-70
2023/10/28 06:05:19;;;;;;;26.75;9.93;;;;;;;22.42;100.00;100766.13;5010562;28;20041;-70
2023/10/28 06:07:47;;;;;;;26.83;10.40;;;;;;;23.72;100.00;100946.97;5009905;28;20500;-70
2023/10/28 06:10:14;;;;;;;24.38;10.30;;;;;;;25.20;100.00;100944.31;5008490;28;20412;-71
2023/10/28 06:12:39;;;;;;;20.25;8.60;;;;;;;24.25;100.00;100854.13;5008761;28;20632;-71
2023/10/28 06:15:06;;;;;;;21.08;8.20;;;;;;;22.68;100.00;100865.59;5011082;28;20026;-70
2023/10/28 06:17:31;;;;;;;23.92;7.95;;;;;;;23.47;100.00;100946.09;5021948;28;20030;-70
2023/10/28 06:19:56;;;;;;;20.85;7.22;;;;;;;22.28;100.00;100931.19;5018331;28;20030;-70
2023/10/28 06:22:22;;;;;;;18.27;6.45;;;;;;;21.73;100.00;100997.53;5018429;28;20120;-70
2023/10/28 06:24:49;;;;;;;15.40;7.07;;;;;;;21.09;100.00;101013.25;5018183;28;20064;-71
2023/10/28 06:27:14;;;;;;;15.65;6.40;;;;;;;20.21;100.00;101068.72;5020141;28;20022;-70
2023/10/28 06:29:40;;;;;;;16.13;6.80;;;;;;;20.36;100.00;101257.38;5020248;28;20040;-70
2023/10/28 06:32:09;;;;;;;15.85;5.97;;;;;;;21.09;100.00;101402.09;5013638;28;20037;-70
2023/10/28 06:34:35;;;;;;;18.75;6.30;;;;;;;20.86;100.00;101481.66;5018839;28;20041;-70
2023/10/28 06:37:01;;;;;;;15.07;6.10;;;;;;;21.17;100.00;101554.38;5021644;28;20048;-71
2023/10/28 06:39:26;;;;;;;18.33;6.70;;;;;;;21.34;100.00;101612.19;5009756;28;20053;-71
2023/10/28 06:41:51;;;;;;;23.85;7.75;;;;;;;21.41;100.00;101652.41;5010486;28;20033;-71
2023/10/28 06:44:19;;;;;;;17.50;6.30;;;;;;;21.41;100.00;101662.75;5016529;28;20036;-71
2023/10/28 06:46:44;;;;;;;15.95;5.43;;;;;;;21.08;100.00;101642.75;5017817;28;20121;-70
2023/10/28 06:49:10;;;;;;;13.23;4.03;;;;;;;20.86;100.00;101583.34;5016029;28;20658;-70
2023/10/28 06:51:36;;;;;;;11.90;4.20;;;;;;;21.63;100.00;101641.06;5020747;28;20037;-70
2023/10/28 06:54:02;;;;;;;12.02;3.50;;;;;;;21.40;100.00;101608.47;5008835;28;20168;-70
2023/10/28 06:56:28;;;;;;;10.70;3.63;;;;;;;22.16;100.00;101657.50;5009176;28;20030;-70
2023/10/28 06:58:54;;;;;;;12.18;3.60;;;;;;;21.59;100.00;101544.56;5017699;28;20076;-70
2023/10/28 07:01:19;;;;;;;6.93;3.20;;;;;;;22.02;100.00;101564.91;5018292;28;20564;-70
2023/10/28 07:03:45;;;;;;;15.50;3.72;;;;;;;21.81;100.00;101472.72;5021093;28;20025;-71
2023/10/28 07:06:14;;;;;;;11.82;3.30;;;;;;;21.67;100.00;101404.38;5009275;28;20048;-72
2023/10/28 07:08:41;;;;;;;15.07;3.38;;;;;;;21.68;100.00;101359.44;5010189;28;20500;-70
2023/10/28 07:11:06;;;;;;;11.90;3.03;;;;;;;22.38;100.00;101404.88;5009833;28;20022;-70
2023/10/28 07:13:32;;;;;;;11.68;2.95;;;;;;;21.96;100.00;101323.44;5020804;28;20115;-70
2023/10/28 07:16:01;;;;;;;14.23;3.13;;;;;;;22.18;100.00;101292.88;5008514;28;20126;-70
2023/10/28 07:18:27;;;;;;;13.13;2.50;;;;;;;22.63;100.00;101277.38;5013854;28;20390;-70
2023/10/28 07:20:53;;;;;;;11.98;2.78;;;;;;;22.39;100.00;101194.00;5021900;28;20036;-70
2023/10/28 07:23:20;;;;;;;6.20;2.35;;;;;;;22.43;100.00;101185.13;5014894;28;20274;-69
2023/10/28 07:25:45;;;;;;;10.18;2.50;;;;;;;22.56;100.00;101169.69;5016236;28;20092;-70
2023/10/28 07:28:13;;;;;;;6.40;2.60;;;;;;;22.76;100.00;101155.59;5021532;28;20045;-69
2023/10/28 07:30:45;;;;;;;7.40;2.40;;;;;;;22.63;100.00;101123.53;5020566;28;20390;-68
2023/10/28 07:33:13;;;;;;;7.90;2.15;;;;;;;22.37;100.00;101024.78;5008117;28;20033;-71
2023/10/28 07:35:42;;;;;;;4.55;1.55;;;;;;;22.75;100.00;101034.63;5017397;28;20025;-70
2023/10/28 07:38:08;;;;;;;7.68;2.17;;;;;;;22.72;100.00;100993.31;5011993;28;20392;-70
2023/10/28 07:40:33;;;;;;;6.95;1.75;;;;;;;23.11;100.00;100972.66;5013522;28;20036;-70
2023/10/28 07:42:59;;;;;;;4.35;1.65;;;;;;;22.84;100.00;100919.94;5009356;28;20037;-71
2023/10/28 07:45:24;;;;;;;5.28;1.73;;;;;;;22.95;100.00;100884.59;5013978;28;20552;-68
2023/10/28 07:47:49;;;;;;;5.20;1.70;;;;;;;23.53;100.00;100879.00;5020755;28;20029;-72
2023/10/28 07:50:15;;;;;;;6.25;1.65;;;;;;;23.37;100.00;100841.19;5015190;28;20032;-69
2023/10/28 07:52:40;;;;;;;6.15;1.52;;;;;;;23.58;100.00;100819.81;5016995;28;20033;-69
2023/10/28 07:55:07;;;;;;;3.72;1.25;;;;;;;23.22;100.00;100740.03;5007549;28;20040;-68
2023/10/28 07:57:33;;;;;;;11.52;2.03;;;;;;;23.02;100.00;100747.50;5008301;28;20400;-70
2023/10/28 07:59:59;;;;;;;4.68;1.50;;;;;;;23.34;100.00;100753.97;5018457;28;20036;-69
2023/10/28 08:02:24;;;;;;;4.68;1.65;;;;;;;23.56;100.00;100740.34;5017101;28;20029;-69
2023/10/28 08:04:54;;;;;;;5.30;1.95;;;;;;;22.84;100.00;100665.75;5020585;28;20116;-70
2023/10/28 08:07:19;;;;;;;9.02;1.85;;;;;;;23.61;100.00;100714.91;5015415;28;20041;-71
2023/10/28 08:09:45;;;;;;;5.72;1.60;;;;;;;23.52;100.00;100642.81;5018036;28;20026;-71
2023/10/28 08:12:11;;;;;;;8.20;1.65;;;;;;;23.75;100.00;100621.25;5019176;28;20032;-72
2023/10/28 08:14:36;;;;;;;6.03;1.77;;;;;;;23.76;100.00;100610.75;5021510;28;20046;-71
2023/10/28 08:17:02;;;;;;;6.78;1.73;;;;;;;24.08;100.00;100596.28;5014773;28;20411;-71
2023/10/28 08:19:29;;;;;;;8.13;1.80;;;;;;;23.94;100.00;100599.00;5007990;28;20465;-70
2023/10/28 08:21:55;;;;;;;7.63;2.15;;;;;;;24.25;100.00;100592.41;5013899;28;20052;-70
2023/10/28 08:24:22;;;;;;;5.88;1.77;;;;;;;23.90;100.00;100472.88;5014395;28;20460;-69
2023/10/28 08:26:48;;;;;;;6.00;1.70;;;;;;;23.92;100.00;100480.56;5008461;28;20030;-69
2023/10/28 08:29:14;;;;;;;11.48;2.20;;;;;;;24.56;100.00;100534.53;5013188;28;20040;-70
2023/10/28 08:31:40;;;;;;;7.45;2.15;;;;;;;24.11;100.00;100454.84;5017827;28;20033;-70
2023/10/28 08:34:07;;;;;;;6.07;2.08;;;;;;;24.24;100.00;100476.38;5018255;28;20401;-70
2023/10/28 08:36:35;;;;;;;7.63;1.80;;;;;;;24.68;100.00;100460.75;5017907;28;20034;-70
2023/10/28 08:39:01;;;;;;;9.80;1.95;;;;;;;24.45;100.00;100433.13;5022089;28;20025;-69
2023/10/28 08:41:26;;;;;;;7.25;1.95;;;;;;;24.54;100.00;100421.97;5006280;28;20488;-69
2023/10/28 08:43:53;;;;;;;6.80;1.70;;;;;;;24.24;100.00;100355.97;5018447;28;20096;-70
2023/10/28 08:46:19;;;;;;;7.50;2.80;;;;;;;24.96;100.00;100406.56;5023124;28;20496;-69
2023/10/28 08:48:45;;;;;;;8.23;2.05;;;;;;;24.13;100.00;100311.81;5007342;28;20022;-70
2023/10/28 08:51:12;;;;;;;9.15;2.70;;;;;;;24.73;100.00;100365.00;5012772;28;20034;-70
2023/10/28 08:53:38;;;;;;;9.10;2.30;;;;;;;24.97;100.00;100306.72;5019169;28;20033;-69
2023/10/28 08:56:04;;;;;;;9.70;2.95;;;;;;;24.81;100.00;100261.16;5012293;28;20033;-71
2023/10/28 08:58:30;;;;;;;5.75;2.08;;;;;;;24.71;100.00;100306.19;5008697;28;20401;-71
2023/10/28 09:00:59;;;;;;;7.85;2.13;;;;;;;24.90;100.00;100290.75;5015612;28;20037;-70
2023/10/28 09:03:26;;;;;;;4.90;2.35;;;;;;;25.08;100.00;100233.78;5013249;28;20045;-71
2023/10/28 09:05:53;;;;;;;7.88;3.88;;;;;;;25.53;100.00;100272.38;5010348;28;20037;-70
2023/10/28 09:08:22;;;;;;;9.93;3.15;;;;;;;25.42;100.00;100178.75;5014919;28;20116;-71
2023/10/28 09:10:48;;;;;;;6.13;2.40;;;;;;;25.15;100.00;100144.63;5007783;28;20029;-71
2023/10/28 09:13:14;;;;;;;5.93;2.20;;;;;;;25.52;100.00;100178.75;5016040;28;20057;-71
2023/10/28 09:15:40;;;;;;;7.38;2.05;;;;;;;25.47;100.00;100173.94;5016239;28;20048;-71
2023/10/28 09:18:05;;;;;;;7.35;2.20;;;;;;;25.42;100.00;100128.44;5006609;28;20489;-70
2023/10/28 09:20:31;;;;;;;5.35;2.00;;;;;;;25.48;100.00;100102.69;5015574;28;20041;-70
2023/10/28 09:22:56;;;;;;;6.70;2.10;;;;;;;25.51;100.00;100050.31;5018232;28;20029;-70
2023/10/28 09:25:22;;;;;;;7.65;2.15;;;;;;;25.75;100.00;100102.84;5020088;28;20029;-70
2023/10/28 09:27:48;;;;;;;7.22;2.20;;;;;;;25.73;100.00;100096.94;5014200;28;20030;-70
2023/10/28 09:30:15;;;;;;;9.75;2.80;;;;;;;25.67;100.00;100050.59;5007691;28;20165;-70
2023/10/28 09:32:41;;;;;;;7.70;2.60;;;;;;;26.17;100.00;100089.56;5021586;28;20112;-70
2023/10/28 09:35:08;;;;;;;7.25;2.20;;;;;;;25.84;100.00;100019.59;5018257;28;20611;-70
2023/10/28 09:37:38;;;;;;;8.70;2.42;;;;;;;25.98;100.00;100000.94;5019331;28;20045;-70
2023/10/28 09:40:09;;;;;;;6.07;2.35;;;;;;;25.99;100.00;99987.75;5017098;28;20492;-71
2023/10/28 09:42:36;;;;;;;6.18;2.65;;;;;;;26.02;100.00;99989.25;5003392;28;20025;-71
2023/10/28 09:45:05;;;;;;;16.20;3.75;;;;;;;25.96;100.00;99941.13;5017311;28;20083;-70
2023/10/28 09:47:49;;;;;;;8.45;2.40;;;;;;;26.69;100.00;99965.56;5015281;28;20025;-70
2023/10/28 09:50:17;;;;;;;6.85;2.35;;;;;;;26.38;100.00;99886.81;5016322;28;20480;-70
2023/10/28 09:52:44;;;;;;;10.43;2.45;;;;;;;26.73;100.00;99854.75;5020056;28;20030;-71
2023/10/28 09:55:12;;;;;;;11.68;2.70;;;;;;;26.41;100.00;99803.03;5016477;28;20021;-71
2023/10/28 09:57:39;;;;;;;8.07;2.80;;;;;;;26.41;100.00;99772.56;5011770;28;20065;-72
2023/10/28 10:00:10;;;;;;;7.40;2.75;;;;;;;26.73;100.00;99826.88;5020773;28;20130;-71
2023/10/28 10:03:08;;;;;;;10.40;2.90;;;;;;;26.80;100.00;99809.63;5019364;28;20033;-71
2023/10/28 10:05:39;;;;;;;12.25;3.30;;;;;;;26.77;100.00;99743.88;5013050;28;20151;-72
2023/10/28 10:08:04;;;;;;;;;;;;;;;26.92;100.00;99795.38;5017153;28;20428;-69
2023/10/28 10:10:44;;;;;;;9.95;2.95;;;;;;;27.00;100.00;99799.88;5015702;28;19921;-68
2023/10/28 10:13:09;;;;;;;9.48;3.13;;;;;;;26.71;100.00;99734.03;5003126;28;20046;-69
2023/10/28 10:15:38;;;;;;;11.30;3.35;;;;;;;26.94;100.00;99750.88;5006670;28;20038;-70
2023/10/28 10:18:21;;;;;;;6.97;2.63;;;;;;;27.73;100.00;99795.94;5004159;28;20026;-69
2023/10/28 10:20:47;;;;;;;12.77;3.03;;;;;;;27.36;100.00;99791.00;5005980;28;20025;-70
2023/10/28 10:23:13;;;;;;;7.88;2.45;;;;;;;27.21;100.00;99797.72;5001976;28;20056;-70
2023/10/28 10:25:45;;;;;;;8.80;2.47;;;;;;;25.86;100.00;99710.22;5008103;28;20037;-72
2023/10/28 10:28:12;;;;;;;6.03;2.17;;;;;;;26.98;100.00;99796.59;5002707;28;20034;-70
2023/10/28 10:30:38;;;;;;;7.18;2.30;;;;;;;26.58;100.00;99734.41;5009643;28;20046;-70
2023/10/28 10:33:03;;;;;;;8.57;2.33;;;;;;;27.34;100.00;99804.22;5007804;28;20459;-69
2023/10/28 10:35:31;;;;;;;8.27;2.38;;;;;;;27.09;100.00;99768.44;5009901;28;20045;-72
2023/10/28 10:38:10;;;;;;;8.10;2.72;;;;;;;27.44;100.00;99811.94;5009350;28;20034;-69
2023/10/28 10:40:50;;;;;;;9.13;3.03;;;;;;;27.37;100.00;99801.28;5003709;28;20398;-69
2023/10/28 10:43:21;;;;;;;12.50;3.42;;;;;;;26.96;100.00;99749.72;5008323;28;20040;-69
2023/10/28 10:45:50;;;;;;;10.25;3.22;;;;;;;27.33;100.00;99770.41;5005900;28;20117;-69
2023/10/28 10:48:16;;;;;;;7.70;3.25;;;;;;;27.62;100.00;99741.31;5008654;28;20030;-69
2023/10/28 10:50:42;;;;;;;10.82;3.00;;;;;;;27.53;100.00;99802.34;5007697;28;20022;-69
2023/10/28 10:53:07;;;;;;;7.55;2.78;;;;;;;27.33;100.00;99770.41;5009094;28;20033;-70
2023/10/28 10:55:33;;;;;;;9.05;2.47;;;;;;;27.35;100.00;99750.19;5006568;28;20037;-69
2023/10/28 10:57:59;;;;;;;7.35;2.50;;;;;;;27.94;100.00;99797.16;5007958;28;20056;-69
2023/10/28 11:00:25;;;;;;;8.52;2.78;;;;;;;27.72;100.00;99797.72;5007518;28;20038;-69
2023/10/28 11:02:53;;;;;;;8.80;2.90;;;;;;;27.51;100.00;99804.31;5008880;28;20030;-68
2023/10/28 11:05:18;;;;;;;9.77;3.13;;;;;;;27.25;100.00;99781.59;5008704;28;20026;-69
2023/10/28 11:07:45;;;;;;;6.43;2.97;;;;;;;27.29;100.00;99745.53;5007259;28;20037;-69